Česky Dansk Deutsch English Español Suomi Français Magyar Italiano Nederlands norsk Polski Português svenska Türkçe

 

Het Weer

Sdr Stroemfjord (Groenland)

14:50, 21 augustus 2016 (GMT)

NWNNE
WE
SWSSE
Home            
Sdr Stroemfjord Holsteinsborg Egedesminde Jacobshavn Lufthavn Godthaab / Nuuk Cape Dyer, N. W. T. Frederikshaab Broughton Island Broughton Island Airport Tasiilaq Kulusuk Lufthavn Cape Mercy Groennedal Pangnirtung Airport Pangnirtung Cape Hooper, N. W. T. Narsarsuaq Julianehaab Brevoort Island Aputiteeq Clyde, N. W. T. Angisoq Prins Christian Sund

Om een weerknop op uw website of weblog te plaatsen, copieer onderstaande code en plak die in uw pagina. In het eerste vakje staat HTML-code, in het tweede vakje UBB-code.


Add to Google

Details

Wind speed:2 bf, 6 kn, 3.1 m/s, 6.9 miles/h, 11.1 km/h
Wind direction:NE, 050° - SE, 130°
Temperature:15°C, 59°F
Dew-point:-1°C, 30°F
Atmospheric pressure:1015 hPa, 761.3 mmHg, 29.97 inHg, 1.002 atm
Relative humidity:33.3 %
METAR:BGSF 211450Z AUTO 08006KT 050V130 9999NDV NCD 15/M01 Q1015

Snelkoppelingen

Actuele weersinformatie van de hele wereld. Voeg locaties toe met het plus (+) symbool. Deze snelkoppelingen kunnen worden toegevoegd aan Google.

Lid van de Technetium groep

website free tracking
StatCounter NetStat W3C Validator

02-10-2022 09:25:46
astro.technetium.be money.technetium.be phote.technetium.be tafeltennistafel.technetium.be www.ligfiets.net